sensor_id;sensor_type;location;lat;lon;timestamp;noise_LAeq;noise_LA_min;noise_LA_max;noise_LA01;noise_LA95
11999;Laerm;40817;51.520;9.954;2023-06-22T00:01:54;40.32;35.94;43.19;;
11999;Laerm;40817;51.520;9.954;2023-06-22T00:04:23;43.15;35.66;49.60;;
11999;Laerm;40817;51.520;9.954;2023-06-22T00:06:50;43.85;39.70;54.77;;
11999;Laerm;40817;51.520;9.954;2023-06-22T00:09:18;41.12;31.68;45.69;;
11999;Laerm;40817;51.520;9.954;2023-06-22T00:11:46;43.40;37.32;52.96;;
11999;Laerm;40817;51.520;9.954;2023-06-22T00:14:13;41.94;37.52;45.51;;
11999;Laerm;40817;51.520;9.954;2023-06-22T00:16:41;41.31;33.90;44.35;;
11999;Laerm;40817;51.520;9.954;2023-06-22T00:19:09;42.21;36.20;66.36;;
11999;Laerm;40817;51.520;9.954;2023-06-22T00:21:39;41.67;36.69;45.36;;
11999;Laerm;40817;51.520;9.954;2023-06-22T00:24:06;42.33;36.20;45.27;;
11999;Laerm;40817;51.520;9.954;2023-06-22T00:26:34;43.06;38.05;45.63;;
11999;Laerm;40817;51.520;9.954;2023-06-22T00:29:01;41.23;36.20;44.47;;
11999;Laerm;40817;51.520;9.954;2023-06-22T00:31:29;41.29;33.44;44.19;;
11999;Laerm;40817;51.520;9.954;2023-06-22T00:33:56;41.61;35.94;44.76;;
11999;Laerm;40817;51.520;9.954;2023-06-22T00:36:24;40.56;36.20;43.49;;
11999;Laerm;40817;51.520;9.954;2023-06-22T00:38:53;40.99;36.10;45.89;;
11999;Laerm;40817;51.520;9.954;2023-06-22T00:41:21;40.08;33.90;43.04;;
11999;Laerm;40817;51.520;9.954;2023-06-22T00:43:48;39.90;32.93;44.15;;
11999;Laerm;40817;51.520;9.954;2023-06-22T00:46:16;39.07;32.93;42.22;;
11999;Laerm;40817;51.520;9.954;2023-06-22T00:48:43;39.25;33.90;42.47;;
11999;Laerm;40817;51.520;9.954;2023-06-22T00:51:12;39.99;33.90;43.09;;
11999;Laerm;40817;51.520;9.954;2023-06-22T00:53:39;41.06;33.90;43.54;;
11999;Laerm;40817;51.520;9.954;2023-06-22T00:56:08;40.79;35.94;43.86;;
11999;Laerm;40817;51.520;9.954;2023-06-22T00:58:38;41.36;32.35;45.39;;
11999;Laerm;40817;51.520;9.954;2023-06-22T01:01:07;41.72;33.90;46.40;;
11999;Laerm;40817;51.520;9.954;2023-06-22T01:03:36;39.85;32.93;42.93;;
11999;Laerm;40817;51.520;9.954;2023-06-22T01:06:10;41.90;35.66;53.03;;
11999;Laerm;40817;51.520;9.954;2023-06-22T01:08:51;43.28;36.69;58.95;;
11999;Laerm;40817;51.520;9.954;2023-06-22T01:11:30;40.64;34.69;43.39;;
11999;Laerm;40817;51.520;9.954;2023-06-22T01:14:06;42.26;34.31;50.33;;
11999;Laerm;40817;51.520;9.954;2023-06-22T01:16:39;41.87;33.90;44.97;;
11999;Laerm;40817;51.520;9.954;2023-06-22T01:19:31;42.51;36.20;50.56;;
11999;Laerm;40817;51.520;9.954;2023-06-22T01:22:01;41.21;34.31;52.81;;
11999;Laerm;40817;51.520;9.954;2023-06-22T01:24:48;40.17;32.35;47.55;;
11999;Laerm;40817;51.520;9.954;2023-06-22T01:27:33;38.76;31.68;42.03;;
11999;Laerm;40817;51.520;9.954;2023-06-22T01:30:10;39.41;33.90;45.30;;
11999;Laerm;40817;51.520;9.954;2023-06-22T01:32:39;42.36;35.04;45.69;;
11999;Laerm;40817;51.520;9.954;2023-06-22T01:35:09;39.89;35.36;43.04;;
11999;Laerm;40817;51.520;9.954;2023-06-22T01:37:38;38.97;33.44;45.63;;
11999;Laerm;40817;51.520;9.954;2023-06-22T01:40:08;39.45;32.93;44.07;;
11999;Laerm;40817;51.520;9.954;2023-06-22T01:42:37;39.25;34.31;55.67;;
11999;Laerm;40817;51.520;9.954;2023-06-22T01:45:08;39.10;33.44;42.41;;
11999;Laerm;40817;51.520;9.954;2023-06-22T01:47:37;39.39;33.90;42.22;;
11999;Laerm;40817;51.520;9.954;2023-06-22T01:50:07;40.27;34.69;52.09;;
11999;Laerm;40817;51.520;9.954;2023-06-22T01:52:36;42.00;33.90;56.55;;
11999;Laerm;40817;51.520;9.954;2023-06-22T01:55:05;44.09;34.69;55.38;;
11999;Laerm;40817;51.520;9.954;2023-06-22T01:57:34;42.19;35.04;56.36;;
11999;Laerm;40817;51.520;9.954;2023-06-22T02:00:05;43.18;34.69;58.06;;
11999;Laerm;40817;51.520;9.954;2023-06-22T02:02:45;42.05;35.04;56.68;;
11999;Laerm;40817;51.520;9.954;2023-06-22T02:05:17;40.39;34.69;51.71;;
11999;Laerm;40817;51.520;9.954;2023-06-22T02:07:53;41.51;35.94;53.51;;
11999;Laerm;40817;51.520;9.954;2023-06-22T02:10:24;43.84;35.66;59.24;;
11999;Laerm;40817;51.520;9.954;2023-06-22T02:12:55;42.25;35.94;57.43;;
11999;Laerm;40817;51.520;9.954;2023-06-22T02:15:24;43.49;37.12;58.74;;
11999;Laerm;40817;51.520;9.954;2023-06-22T02:17:54;43.53;37.12;57.70;;
11999;Laerm;40817;51.520;9.954;2023-06-22T02:20:21;42.66;37.32;55.01;;
11999;Laerm;40817;51.520;9.954;2023-06-22T02:22:50;41.97;35.94;58.82;;
11999;Laerm;40817;51.520;9.954;2023-06-22T02:25:18;41.86;35.94;53.68;;
11999;Laerm;40817;51.520;9.954;2023-06-22T02:27:46;41.03;34.31;53.73;;
11999;Laerm;40817;51.520;9.954;2023-06-22T02:30:14;42.09;37.88;50.97;;
11999;Laerm;40817;51.520;9.954;2023-06-22T02:32:42;41.48;36.69;51.77;;
11999;Laerm;40817;51.520;9.954;2023-06-22T02:35:11;45.29;39.81;56.51;;
11999;Laerm;40817;51.520;9.954;2023-06-22T02:37:40;42.11;36.45;52.57;;
11999;Laerm;40817;51.520;9.954;2023-06-22T02:40:09;43.73;38.05;54.84;;
11999;Laerm;40817;51.520;9.954;2023-06-22T02:42:39;47.37;38.37;63.56;;
11999;Laerm;40817;51.520;9.954;2023-06-22T02:45:08;42.62;38.67;52.60;;
11999;Laerm;40817;51.520;9.954;2023-06-22T02:47:36;41.78;37.32;51.81;;
11999;Laerm;40817;51.520;9.954;2023-06-22T02:50:05;41.90;36.69;54.29;;
11999;Laerm;40817;51.520;9.954;2023-06-22T02:52:34;41.53;38.21;53.79;;
11999;Laerm;40817;51.520;9.954;2023-06-22T02:55:02;41.49;37.70;46.28;;
11999;Laerm;40817;51.520;9.954;2023-06-22T02:57:30;42.01;38.67;52.21;;
11999;Laerm;40817;51.520;9.954;2023-06-22T02:59:57;42.13;38.67;48.51;;
11999;Laerm;40817;51.520;9.954;2023-06-22T03:02:25;41.94;37.70;45.48;;
11999;Laerm;40817;51.520;9.954;2023-06-22T03:05:14;42.10;38.32;48.16;;
11999;Laerm;40817;51.520;9.954;2023-06-22T03:08:05;43.70;38.21;64.07;;
11999;Laerm;40817;51.520;9.954;2023-06-22T03:10:34;45.75;41.22;54.84;;
11999;Laerm;40817;51.520;9.954;2023-06-22T03:13:01;42.21;37.52;50.05;;
11999;Laerm;40817;51.520;9.954;2023-06-22T03:15:29;42.39;38.95;51.50;;
11999;Laerm;40817;51.520;9.954;2023-06-22T03:17:57;42.19;38.37;49.52;;
11999;Laerm;40817;51.520;9.954;2023-06-22T03:20:25;43.51;38.21;53.94;;
11999;Laerm;40817;51.520;9.954;2023-06-22T03:23:00;42.41;38.74;45.39;;
11999;Laerm;40817;51.520;9.954;2023-06-22T03:25:28;41.07;36.91;44.80;;
11999;Laerm;40817;51.520;9.954;2023-06-22T03:27:56;41.91;37.52;47.74;;
11999;Laerm;40817;51.520;9.954;2023-06-22T03:30:24;43.23;38.95;53.47;;
11999;Laerm;40817;51.520;9.954;2023-06-22T03:32:51;42.52;38.21;57.48;;
11999;Laerm;40817;51.520;9.954;2023-06-22T03:35:19;47.08;37.88;67.04;;
11999;Laerm;40817;51.520;9.954;2023-06-22T03:37:48;41.83;38.21;44.80;;
11999;Laerm;40817;51.520;9.954;2023-06-22T03:40:16;42.54;38.67;45.77;;
11999;Laerm;40817;51.520;9.954;2023-06-22T03:42:45;42.55;38.81;47.63;;
11999;Laerm;40817;51.520;9.954;2023-06-22T03:45:13;41.82;38.05;48.94;;
11999;Laerm;40817;51.520;9.954;2023-06-22T03:47:41;42.26;38.37;51.08;;
11999;Laerm;40817;51.520;9.954;2023-06-22T03:50:09;43.61;36.69;55.74;;
11999;Laerm;40817;51.520;9.954;2023-06-22T03:52:37;42.63;38.21;52.78;;
11999;Laerm;40817;51.520;9.954;2023-06-22T03:55:07;41.54;35.94;44.69;;
11999;Laerm;40817;51.520;9.954;2023-06-22T03:57:34;41.77;37.70;55.59;;
11999;Laerm;40817;51.520;9.954;2023-06-22T04:00:05;42.43;38.05;53.02;;
11999;Laerm;40817;51.520;9.954;2023-06-22T04:02:34;42.19;38.37;47.98;;
11999;Laerm;40817;51.520;9.954;2023-06-22T04:05:01;42.33;37.88;52.19;;
11999;Laerm;40817;51.520;9.954;2023-06-22T04:07:29;41.47;37.70;43.86;;
11999;Laerm;40817;51.520;9.954;2023-06-22T04:09:56;41.35;37.32;44.11;;
11999;Laerm;40817;51.520;9.954;2023-06-22T04:12:24;42.32;38.21;52.44;;
11999;Laerm;40817;51.520;9.954;2023-06-22T04:14:51;42.64;38.05;52.59;;
11999;Laerm;40817;51.520;9.954;2023-06-22T04:17:20;41.89;38.67;44.43;;
11999;Laerm;40817;51.520;9.954;2023-06-22T04:19:51;42.92;37.52;65.43;;
11999;Laerm;40817;51.520;9.954;2023-06-22T04:22:19;41.59;37.32;48.94;;
11999;Laerm;40817;51.520;9.954;2023-06-22T04:24:47;41.67;37.88;44.51;;
11999;Laerm;40817;51.520;9.954;2023-06-22T04:27:15;41.97;37.52;52.42;;
11999;Laerm;40817;51.520;9.954;2023-06-22T04:29:42;42.81;38.95;53.41;;
11999;Laerm;40817;51.520;9.954;2023-06-22T04:32:15;51.78;37.52;73.98;;
11999;Laerm;40817;51.520;9.954;2023-06-22T04:34:44;44.87;37.52;67.64;;
11999;Laerm;40817;51.520;9.954;2023-06-22T04:37:11;43.48;38.21;52.98;;
11999;Laerm;40817;51.520;9.954;2023-06-22T04:39:42;42.58;38.81;53.92;;
11999;Laerm;40817;51.520;9.954;2023-06-22T04:42:10;42.77;36.91;57.30;;
11999;Laerm;40817;51.520;9.954;2023-06-22T04:44:37;42.23;38.21;45.54;;
11999;Laerm;40817;51.520;9.954;2023-06-22T04:47:06;42.56;38.52;51.70;;
11999;Laerm;40817;51.520;9.954;2023-06-22T04:49:37;42.18;38.05;50.91;;
11999;Laerm;40817;51.520;9.954;2023-06-22T04:52:11;42.40;37.52;52.96;;
11999;Laerm;40817;51.520;9.954;2023-06-22T04:54:40;43.10;38.05;53.63;;
11999;Laerm;40817;51.520;9.954;2023-06-22T04:57:14;42.91;39.35;54.51;;
11999;Laerm;40817;51.520;9.954;2023-06-22T04:59:42;43.32;38.95;52.07;;
11999;Laerm;40817;51.520;9.954;2023-06-22T05:02:10;42.33;38.05;58.81;;
11999;Laerm;40817;51.520;9.954;2023-06-22T05:04:38;42.09;38.37;56.31;;
11999;Laerm;40817;51.520;9.954;2023-06-22T05:07:07;42.46;38.52;50.51;;
11999;Laerm;40817;51.520;9.954;2023-06-22T05:09:35;42.64;38.37;51.33;;
11999;Laerm;40817;51.520;9.954;2023-06-22T05:12:04;45.56;40.43;56.58;;
11999;Laerm;40817;51.520;9.954;2023-06-22T05:14:32;44.10;39.58;53.51;;
11999;Laerm;40817;51.520;9.954;2023-06-22T05:17:00;43.21;39.08;51.01;;
11999;Laerm;40817;51.520;9.954;2023-06-22T05:19:30;42.71;38.67;51.17;;
11999;Laerm;40817;51.520;9.954;2023-06-22T05:21:59;42.91;38.67;52.04;;
11999;Laerm;40817;51.520;9.954;2023-06-22T05:24:28;42.52;38.95;50.01;;
11999;Laerm;40817;51.520;9.954;2023-06-22T05:26:56;42.71;39.21;50.84;;
11999;Laerm;40817;51.520;9.954;2023-06-22T05:29:23;42.44;38.52;54.45;;
11999;Laerm;40817;51.520;9.954;2023-06-22T05:31:53;42.93;38.95;45.80;;
11999;Laerm;40817;51.520;9.954;2023-06-22T05:34:20;44.03;40.33;58.43;;
11999;Laerm;40817;51.520;9.954;2023-06-22T05:36:48;43.63;39.46;53.48;;
11999;Laerm;40817;51.520;9.954;2023-06-22T05:39:16;44.00;39.21;52.79;;
11999;Laerm;40817;51.520;9.954;2023-06-22T05:41:46;43.45;39.21;51.67;;
11999;Laerm;40817;51.520;9.954;2023-06-22T05:44:13;43.34;38.05;55.28;;
11999;Laerm;40817;51.520;9.954;2023-06-22T05:46:43;43.65;38.21;53.35;;
11999;Laerm;40817;51.520;9.954;2023-06-22T05:49:13;41.89;37.52;45.75;;
11999;Laerm;40817;51.520;9.954;2023-06-22T05:51:41;42.77;36.91;52.84;;
11999;Laerm;40817;51.520;9.954;2023-06-22T05:54:09;42.46;37.12;51.44;;
11999;Laerm;40817;51.520;9.954;2023-06-22T05:56:36;42.70;39.21;48.40;;
11999;Laerm;40817;51.520;9.954;2023-06-22T05:59:05;44.44;37.88;52.00;;
11999;Laerm;40817;51.520;9.954;2023-06-22T06:01:33;43.19;39.70;51.09;;
11999;Laerm;40817;51.520;9.954;2023-06-22T06:04:02;55.92;38.67;79.04;;
11999;Laerm;40817;51.520;9.954;2023-06-22T06:06:30;52.85;40.03;65.77;;
11999;Laerm;40817;51.520;9.954;2023-06-22T06:08:58;50.70;38.95;81.33;;
11999;Laerm;40817;51.520;9.954;2023-06-22T06:11:26;43.10;39.46;51.36;;
11999;Laerm;40817;51.520;9.954;2023-06-22T06:13:53;43.37;39.34;52.14;;
11999;Laerm;40817;51.520;9.954;2023-06-22T06:16:23;44.05;39.92;51.00;;
11999;Laerm;40817;51.520;9.954;2023-06-22T06:18:51;43.51;39.58;51.67;;
11999;Laerm;40817;51.520;9.954;2023-06-22T06:21:21;46.28;38.95;61.98;;
11999;Laerm;40817;51.520;9.954;2023-06-22T06:23:48;42.62;38.21;46.64;;
11999;Laerm;40817;51.520;9.954;2023-06-22T06:26:16;45.14;39.58;60.02;;
11999;Laerm;40817;51.520;9.954;2023-06-22T06:28:44;46.45;39.70;60.70;;
11999;Laerm;40817;51.520;9.954;2023-06-22T06:31:12;44.85;37.87;56.21;;
11999;Laerm;40817;51.520;9.954;2023-06-22T06:33:44;44.98;37.32;57.78;;
11999;Laerm;40817;51.520;9.954;2023-06-22T06:36:12;52.25;37.70;68.34;;
11999;Laerm;40817;51.520;9.954;2023-06-22T06:38:39;47.28;37.88;64.84;;
11999;Laerm;40817;51.520;9.954;2023-06-22T06:41:07;43.33;39.21;56.20;;
11999;Laerm;40817;51.520;9.954;2023-06-22T06:43:34;43.26;39.81;50.78;;
11999;Laerm;40817;51.520;9.954;2023-06-22T06:46:02;43.05;39.08;56.51;;
11999;Laerm;40817;51.520;9.954;2023-06-22T06:48:30;43.52;39.21;58.60;;
11999;Laerm;40817;51.520;9.954;2023-06-22T06:50:59;44.48;39.92;55.16;;
11999;Laerm;40817;51.520;9.954;2023-06-22T06:53:27;43.15;39.34;52.64;;
11999;Laerm;40817;51.520;9.954;2023-06-22T06:55:55;45.65;40.08;58.92;;
11999;Laerm;40817;51.520;9.954;2023-06-22T06:58:23;43.82;38.95;64.12;;
11999;Laerm;40817;51.520;9.954;2023-06-22T07:00:51;47.00;38.95;60.28;;
11999;Laerm;40817;51.520;9.954;2023-06-22T07:03:18;43.73;39.34;57.21;;
11999;Laerm;40817;51.520;9.954;2023-06-22T07:05:46;43.82;39.08;57.36;;
11999;Laerm;40817;51.520;9.954;2023-06-22T07:08:14;43.11;38.99;58.61;;
11999;Laerm;40817;51.520;9.954;2023-06-22T07:10:42;42.56;38.21;49.96;;
11999;Laerm;40817;51.520;9.954;2023-06-22T07:13:10;43.34;37.70;58.61;;
11999;Laerm;40817;51.520;9.954;2023-06-22T07:15:38;43.58;38.87;52.99;;
11999;Laerm;40817;51.520;9.954;2023-06-22T07:18:05;42.90;37.70;59.24;;
11999;Laerm;40817;51.520;9.954;2023-06-22T07:20:33;43.75;39.46;54.64;;
11999;Laerm;40817;51.520;9.954;2023-06-22T07:23:00;42.74;39.58;56.81;;
11999;Laerm;40817;51.520;9.954;2023-06-22T07:25:31;43.68;40.08;56.31;;
11999;Laerm;40817;51.520;9.954;2023-06-22T07:28:01;44.69;41.06;51.22;;
11999;Laerm;40817;51.520;9.954;2023-06-22T07:30:29;44.89;38.95;54.18;;
11999;Laerm;40817;51.520;9.954;2023-06-22T07:32:58;45.40;40.13;53.80;;
11999;Laerm;40817;51.520;9.954;2023-06-22T07:35:30;45.32;40.62;64.47;;
11999;Laerm;40817;51.520;9.954;2023-06-22T07:37:58;44.24;40.62;63.77;;
11999;Laerm;40817;51.520;9.954;2023-06-22T07:40:26;43.62;41.68;46.07;;
11999;Laerm;40817;51.520;9.954;2023-06-22T07:42:55;44.29;41.22;61.96;;
11999;Laerm;40817;51.520;9.954;2023-06-22T07:45:22;44.40;41.06;54.60;;
11999;Laerm;40817;51.520;9.954;2023-06-22T07:47:50;44.17;40.71;49.75;;
11999;Laerm;40817;51.520;9.954;2023-06-22T07:50:18;44.79;41.82;51.74;;
11999;Laerm;40817;51.520;9.954;2023-06-22T07:52:45;45.07;41.46;61.21;;
11999;Laerm;40817;51.520;9.954;2023-06-22T07:55:14;44.09;41.38;55.79;;
11999;Laerm;40817;51.520;9.954;2023-06-22T07:57:42;43.87;41.14;48.08;;
11999;Laerm;40817;51.520;9.954;2023-06-22T08:00:12;43.40;39.08;51.35;;
11999;Laerm;40817;51.520;9.954;2023-06-22T08:02:44;43.51;39.21;50.82;;
11999;Laerm;40817;51.520;9.954;2023-06-22T08:05:13;43.72;38.05;50.68;;
11999;Laerm;40817;51.520;9.954;2023-06-22T08:07:40;43.60;38.95;50.12;;
11999;Laerm;40817;51.520;9.954;2023-06-22T08:10:11;43.74;38.95;52.27;;
11999;Laerm;40817;51.520;9.954;2023-06-22T08:12:39;43.52;37.70;54.46;;
11999;Laerm;40817;51.520;9.954;2023-06-22T08:15:09;43.39;38.52;50.79;;
11999;Laerm;40817;51.520;9.954;2023-06-22T08:17:37;43.59;38.52;52.47;;
11999;Laerm;40817;51.520;9.954;2023-06-22T08:20:07;44.82;39.46;56.21;;
11999;Laerm;40817;51.520;9.954;2023-06-22T08:22:38;44.18;38.81;56.37;;
11999;Laerm;40817;51.520;9.954;2023-06-22T08:25:08;43.51;38.81;50.91;;
11999;Laerm;40817;51.520;9.954;2023-06-22T08:27:36;43.71;37.70;60.41;;
11999;Laerm;40817;51.520;9.954;2023-06-22T08:30:06;43.57;37.32;50.74;;
11999;Laerm;40817;51.520;9.954;2023-06-22T08:32:35;44.00;39.70;56.36;;
11999;Laerm;40817;51.520;9.954;2023-06-22T08:35:04;43.92;39.08;53.80;;
11999;Laerm;40817;51.520;9.954;2023-06-22T08:37:34;43.45;39.92;55.47;;
11999;Laerm;40817;51.520;9.954;2023-06-22T08:40:07;44.24;39.46;56.06;;
11999;Laerm;40817;51.520;9.954;2023-06-22T08:42:36;43.84;39.34;55.40;;
11999;Laerm;40817;51.520;9.954;2023-06-22T08:45:05;44.27;39.34;54.37;;
11999;Laerm;40817;51.520;9.954;2023-06-22T08:47:35;43.99;39.58;58.94;;
11999;Laerm;40817;51.520;9.954;2023-06-22T08:50:02;44.11;39.21;59.21;;
11999;Laerm;40817;51.520;9.954;2023-06-22T08:52:30;43.89;38.95;58.81;;
11999;Laerm;40817;51.520;9.954;2023-06-22T08:54:58;46.43;38.67;56.97;;
11999;Laerm;40817;51.520;9.954;2023-06-22T08:57:26;46.72;40.33;63.16;;
11999;Laerm;40817;51.520;9.954;2023-06-22T08:59:53;44.15;39.70;56.42;;
11999;Laerm;40817;51.520;9.954;2023-06-22T09:02:24;44.14;38.95;54.73;;
11999;Laerm;40817;51.520;9.954;2023-06-22T09:04:53;52.78;39.70;65.69;;
11999;Laerm;40817;51.520;9.954;2023-06-22T09:07:21;49.98;40.53;65.85;;
11999;Laerm;40817;51.520;9.954;2023-06-22T09:09:50;44.75;40.33;53.57;;
11999;Laerm;40817;51.520;9.954;2023-06-22T09:12:18;44.25;39.08;57.92;;
11999;Laerm;40817;51.520;9.954;2023-06-22T09:14:46;44.19;39.34;56.48;;
11999;Laerm;40817;51.520;9.954;2023-06-22T09:17:14;44.24;39.81;53.39;;
11999;Laerm;40817;51.520;9.954;2023-06-22T09:19:41;44.09;39.21;52.01;;
11999;Laerm;40817;51.520;9.954;2023-06-22T09:22:10;43.69;39.70;52.44;;
11999;Laerm;40817;51.520;9.954;2023-06-22T09:24:38;44.03;37.52;70.08;;
11999;Laerm;40817;51.520;9.954;2023-06-22T09:27:06;57.71;40.03;77.57;;
11999;Laerm;40817;51.520;9.954;2023-06-22T09:29:33;43.27;38.52;53.38;;
11999;Laerm;40817;51.520;9.954;2023-06-22T09:32:01;47.32;38.67;71.77;;
11999;Laerm;40817;51.520;9.954;2023-06-22T09:34:28;47.09;39.34;64.13;;
11999;Laerm;40817;51.520;9.954;2023-06-22T09:36:58;44.76;38.81;59.68;;
11999;Laerm;40817;51.520;9.954;2023-06-22T09:39:28;43.24;38.52;51.77;;
11999;Laerm;40817;51.520;9.954;2023-06-22T09:41:57;46.16;38.52;69.17;;
11999;Laerm;40817;51.520;9.954;2023-06-22T09:44:26;43.92;39.08;53.19;;
11999;Laerm;40817;51.520;9.954;2023-06-22T09:46:54;44.10;39.81;54.24;;
11999;Laerm;40817;51.520;9.954;2023-06-22T09:49:21;44.58;40.03;54.49;;
11999;Laerm;40817;51.520;9.954;2023-06-22T09:51:49;43.60;38.52;53.74;;
11999;Laerm;40817;51.520;9.954;2023-06-22T09:54:17;49.46;39.34;69.31;;
11999;Laerm;40817;51.520;9.954;2023-06-22T09:56:46;44.43;38.81;66.00;;
11999;Laerm;40817;51.520;9.954;2023-06-22T09:59:14;46.03;40.33;57.88;;
11999;Laerm;40817;51.520;9.954;2023-06-22T10:01:41;53.74;41.46;66.58;;
11999;Laerm;40817;51.520;9.954;2023-06-22T10:04:09;48.56;39.08;60.91;;
11999;Laerm;40817;51.520;9.954;2023-06-22T10:06:36;43.54;39.21;53.18;;
11999;Laerm;40817;51.520;9.954;2023-06-22T10:09:07;43.80;40.23;52.12;;
11999;Laerm;40817;51.520;9.954;2023-06-22T10:11:35;43.70;38.47;57.99;;
11999;Laerm;40817;51.520;9.954;2023-06-22T10:14:04;43.15;38.02;52.80;;
11999;Laerm;40817;51.520;9.954;2023-06-22T10:16:33;44.48;40.13;54.33;;
11999;Laerm;40817;51.520;9.954;2023-06-22T10:19:02;44.44;40.62;53.69;;
11999;Laerm;40817;51.520;9.954;2023-06-22T10:21:29;42.97;38.81;54.97;;
11999;Laerm;40817;51.520;9.954;2023-06-22T10:23:57;42.66;38.52;56.88;;
11999;Laerm;40817;51.520;9.954;2023-06-22T10:26:30;42.50;38.52;52.63;;
11999;Laerm;40817;51.520;9.954;2023-06-22T10:28:58;54.35;38.95;73.01;;
11999;Laerm;40817;51.520;9.954;2023-06-22T10:31:28;53.95;39.34;75.49;;
11999;Laerm;40817;51.520;9.954;2023-06-22T10:33:56;44.18;36.45;72.66;;
11999;Laerm;40817;51.520;9.954;2023-06-22T10:36:23;43.39;38.81;61.09;;
11999;Laerm;40817;51.520;9.954;2023-06-22T10:38:51;46.21;38.52;57.44;;
11999;Laerm;40817;51.520;9.954;2023-06-22T10:41:19;63.56;44.07;78.85;;
11999;Laerm;40817;51.520;9.954;2023-06-22T10:43:47;44.44;38.37;56.57;;
11999;Laerm;40817;51.520;9.954;2023-06-22T10:46:15;43.81;37.12;55.76;;
11999;Laerm;40817;51.520;9.954;2023-06-22T10:48:44;43.65;38.95;54.62;;
11999;Laerm;40817;51.520;9.954;2023-06-22T10:51:12;44.65;39.92;61.79;;
11999;Laerm;40817;51.520;9.954;2023-06-22T10:53:39;43.10;38.37;54.86;;
11999;Laerm;40817;51.520;9.954;2023-06-22T10:56:07;43.82;38.05;59.48;;
11999;Laerm;40817;51.520;9.954;2023-06-22T10:58:35;51.38;42.35;71.66;;
11999;Laerm;40817;51.520;9.954;2023-06-22T11:01:02;44.12;39.58;60.57;;
11999;Laerm;40817;51.520;9.954;2023-06-22T11:03:30;44.03;38.67;54.78;;
11999;Laerm;40817;51.520;9.954;2023-06-22T11:05:59;44.55;40.23;57.14;;
11999;Laerm;40817;51.520;9.954;2023-06-22T11:08:26;43.25;39.46;51.11;;
11999;Laerm;40817;51.520;9.954;2023-06-22T11:10:54;43.24;39.34;52.04;;
11999;Laerm;40817;51.520;9.954;2023-06-22T11:13:21;42.89;38.67;52.32;;
11999;Laerm;40817;51.520;9.954;2023-06-22T11:15:49;53.18;38.37;71.67;;
11999;Laerm;40817;51.520;9.954;2023-06-22T11:18:16;44.83;38.37;60.97;;
11999;Laerm;40817;51.520;9.954;2023-06-22T11:20:44;42.35;37.88;47.91;;
11999;Laerm;40817;51.520;9.954;2023-06-22T11:23:29;42.85;38.02;49.15;;
11999;Laerm;40817;51.520;9.954;2023-06-22T11:25:57;43.14;39.08;52.64;;
11999;Laerm;40817;51.520;9.954;2023-06-22T11:28:24;46.62;39.08;62.12;;
11999;Laerm;40817;51.520;9.954;2023-06-22T11:30:52;46.60;38.52;66.77;;
11999;Laerm;40817;51.520;9.954;2023-06-22T11:33:20;43.00;38.67;57.33;;
11999;Laerm;40817;51.520;9.954;2023-06-22T11:35:48;43.04;38.05;57.46;;
11999;Laerm;40817;51.520;9.954;2023-06-22T11:38:15;44.53;38.21;62.96;;
11999;Laerm;40817;51.520;9.954;2023-06-22T11:40:45;43.37;39.34;63.34;;
11999;Laerm;40817;51.520;9.954;2023-06-22T11:43:12;43.55;39.34;54.72;;
11999;Laerm;40817;51.520;9.954;2023-06-22T11:45:41;43.84;39.21;53.92;;
11999;Laerm;40817;51.520;9.954;2023-06-22T11:48:08;45.14;38.21;58.74;;
11999;Laerm;40817;51.520;9.954;2023-06-22T11:50:36;43.48;38.81;60.67;;
11999;Laerm;40817;51.520;9.954;2023-06-22T11:53:04;43.10;38.95;49.46;;
11999;Laerm;40817;51.520;9.954;2023-06-22T11:55:31;43.39;39.08;55.27;;
11999;Laerm;40817;51.520;9.954;2023-06-22T11:58:01;43.78;39.34;63.01;;
11999;Laerm;40817;51.520;9.954;2023-06-22T12:00:30;43.90;38.52;69.48;;
11999;Laerm;40817;51.520;9.954;2023-06-22T12:02:58;43.30;37.70;60.80;;
11999;Laerm;40817;51.520;9.954;2023-06-22T12:05:26;44.39;40.33;65.30;;
11999;Laerm;40817;51.520;9.954;2023-06-22T12:07:54;44.10;40.03;60.35;;
11999;Laerm;40817;51.520;9.954;2023-06-22T12:10:23;44.44;40.89;57.43;;
11999;Laerm;40817;51.520;9.954;2023-06-22T12:12:51;45.89;40.36;62.35;;
11999;Laerm;40817;51.520;9.954;2023-06-22T12:15:20;51.04;39.21;80.46;;
11999;Laerm;40817;51.520;9.954;2023-06-22T12:17:48;59.31;40.62;77.05;;
11999;Laerm;40817;51.520;9.954;2023-06-22T12:20:16;43.62;39.81;51.06;;
11999;Laerm;40817;51.520;9.954;2023-06-22T12:22:44;43.68;39.70;54.26;;
11999;Laerm;40817;51.520;9.954;2023-06-22T12:25:12;48.00;39.46;63.19;;
11999;Laerm;40817;51.520;9.954;2023-06-22T12:27:40;46.98;38.52;62.44;;
11999;Laerm;40817;51.520;9.954;2023-06-22T12:30:09;44.18;38.52;60.71;;
11999;Laerm;40817;51.520;9.954;2023-06-22T12:32:38;44.03;39.58;62.21;;
11999;Laerm;40817;51.520;9.954;2023-06-22T12:35:07;43.90;38.81;57.75;;
11999;Laerm;40817;51.520;9.954;2023-06-22T12:37:40;44.24;40.33;54.15;;
11999;Laerm;40817;51.520;9.954;2023-06-22T12:40:10;43.97;39.21;60.45;;
11999;Laerm;40817;51.520;9.954;2023-06-22T12:42:38;44.26;39.34;57.55;;
11999;Laerm;40817;51.520;9.954;2023-06-22T12:45:08;43.91;38.37;54.80;;
11999;Laerm;40817;51.520;9.954;2023-06-22T12:47:36;43.92;40.13;55.87;;
11999;Laerm;40817;51.520;9.954;2023-06-22T12:50:07;43.98;39.34;52.96;;
11999;Laerm;40817;51.520;9.954;2023-06-22T12:52:37;46.83;39.21;66.14;;
11999;Laerm;40817;51.520;9.954;2023-06-22T12:55:08;46.16;38.81;60.10;;
11999;Laerm;40817;51.520;9.954;2023-06-22T12:57:36;43.17;38.81;53.11;;
11999;Laerm;40817;51.520;9.954;2023-06-22T13:00:06;43.38;38.95;56.53;;
11999;Laerm;40817;51.520;9.954;2023-06-22T13:02:36;52.75;38.67;71.32;;
11999;Laerm;40817;51.520;9.954;2023-06-22T13:05:06;49.39;39.46;69.67;;
11999;Laerm;40817;51.520;9.954;2023-06-22T13:07:35;50.82;39.46;66.38;;
11999;Laerm;40817;51.520;9.954;2023-06-22T13:10:04;48.74;39.92;65.38;;
11999;Laerm;40817;51.520;9.954;2023-06-22T13:12:32;44.39;39.08;55.41;;
11999;Laerm;40817;51.520;9.954;2023-06-22T13:14:59;44.27;39.34;55.71;;
11999;Laerm;40817;51.520;9.954;2023-06-22T13:17:28;43.43;39.21;49.04;;
11999;Laerm;40817;51.520;9.954;2023-06-22T13:19:56;43.55;39.21;49.94;;
11999;Laerm;40817;51.520;9.954;2023-06-22T13:22:30;43.33;38.05;60.83;;
11999;Laerm;40817;51.520;9.954;2023-06-22T13:24:59;44.39;39.21;59.63;;
11999;Laerm;40817;51.520;9.954;2023-06-22T13:27:27;45.10;39.58;65.75;;
11999;Laerm;40817;51.520;9.954;2023-06-22T13:29:55;44.10;40.03;52.10;;
11999;Laerm;40817;51.520;9.954;2023-06-22T13:32:22;42.97;36.91;52.83;;
11999;Laerm;40817;51.520;9.954;2023-06-22T13:34:52;43.69;39.46;54.94;;
11999;Laerm;40817;51.520;9.954;2023-06-22T13:37:19;44.81;39.58;57.23;;
11999;Laerm;40817;51.520;9.954;2023-06-22T13:39:48;44.78;41.14;52.35;;
11999;Laerm;40817;51.520;9.954;2023-06-22T13:42:16;44.44;39.34;54.69;;
11999;Laerm;40817;51.520;9.954;2023-06-22T13:44:43;43.02;38.67;50.06;;
11999;Laerm;40817;51.520;9.954;2023-06-22T13:47:11;42.76;37.12;47.86;;
11999;Laerm;40817;51.520;9.954;2023-06-22T13:49:39;43.47;38.95;53.14;;
11999;Laerm;40817;51.520;9.954;2023-06-22T13:52:08;42.80;38.37;54.68;;
11999;Laerm;40817;51.520;9.954;2023-06-22T13:54:38;44.04;38.81;59.76;;